Home > Products > Valid Products > TAF

000
FTUS45 KPUB 191737
TAFCOS
TAF
KCOS 191737Z 1918/2018 16007KT P6SM FEW100 SCT200
     FM192300 12009KT P6SM SCT080 SCT150
     FM200300 01006KT P6SM SCT080 SCT150
     FM200800 36007KT P6SM FEW200=



000
FTUS45 KPUB 191737
TAFPUB
TAF
KPUB 191737Z 1918/2018 VRB05KT P6SM FEW200
     FM192100 11010KT P6SM FEW120 SCT200
     FM200200 VRB06KT P6SM SCT120 SCT200
     FM200600 33007KT P6SM FEW200=



000
FTUS45 KPUB 191737
TAFALS
TAF
KALS 191737Z 1918/2018 VRB05KT P6SM SCT200
     FM192000 VRB06KT P6SM FEW100 SCT200
     FM200200 VRB05KT P6SM SCT080 BKN200
     FM201300 VRB04KT P6SM SCT200=



000
FTUS45 KPUB 191737
TAFALS
TAF
KALS 191737Z 1918/2018 VRB05KT P6SM SCT200
     FM192000 VRB06KT P6SM FEW100 SCT200
     FM200200 VRB05KT P6SM SCT080 BKN200
     FM201300 VRB04KT P6SM SCT200=



000
FTUS45 KPUB 191737
TAFCOS
TAF
KCOS 191737Z 1918/2018 16007KT P6SM FEW100 SCT200
     FM192300 12009KT P6SM SCT080 SCT150
     FM200300 01006KT P6SM SCT080 SCT150
     FM200800 36007KT P6SM FEW200=



000
FTUS45 KPUB 191737
TAFPUB
TAF
KPUB 191737Z 1918/2018 VRB05KT P6SM FEW200
     FM192100 11010KT P6SM FEW120 SCT200
     FM200200 VRB06KT P6SM SCT120 SCT200
     FM200600 33007KT P6SM FEW200=



000
FTUS45 KPUB 191137
TAFALS
TAF
KALS 191137Z 1912/2012 VRB05KT P6SM SCT200
     FM192000 VRB06KT P6SM SCT100 SCT200
     FM200200 VRB05KT P6SM SCT080 BKN200=



000
FTUS45 KPUB 191137
TAFCOS
TAF
KCOS 191137Z 1912/2012 VRB05KT P6SM SKC
     FM191700 16008KT P6SM FEW100 SCT200
     FM192300 12009KT P6SM SCT080 SCT150
     FM200300 01006KT P6SM SCT080 SCT150=



000
FTUS45 KPUB 191137
TAFPUB
TAF
KPUB 191137Z 1912/2012 VRB05KT P6SM SKC
     FM191900 11010KT P6SM FEW120 SCT200
     FM200200 VRB06KT P6SM SCT120 SCT200=



000
FTUS45 KPUB 191137
TAFALS
TAF
KALS 191137Z 1912/2012 VRB05KT P6SM SCT200
     FM192000 VRB06KT P6SM SCT100 SCT200
     FM200200 VRB05KT P6SM SCT080 BKN200=



000
FTUS45 KPUB 190520
TAFPUB
TAF
KPUB 190520Z 1906/2006 VRB05KT P6SM SKC
     FM191800 11010KT P6SM FEW120 SCT200
     FM200200 VRB05KT P6SM BKN200=



000
FTUS45 KPUB 190520
TAFALS
TAF
KALS 190520Z 1906/2006 VRB05KT P6SM FEW120 SCT150
     FM192000 06010KT P6SM SCT100 BKN150
     FM200200 VRB05KT P6SM FEW100 BKN150=



000
FTUS45 KPUB 190520
TAFALS
TAF
KALS 190520Z 1906/2006 VRB05KT P6SM FEW120 SCT150
     FM192000 06010KT P6SM SCT100 BKN150
     FM200200 VRB05KT P6SM FEW100 BKN150=



000
FTUS45 KPUB 190520
TAFCOS
TAF
KCOS 190520Z 1906/2006 VRB06KT P6SM FEW200
     FM190900 36006KT P6SM SKC
     FM191700 14008KT P6SM FEW100 SCT200
     FM200200 02008KT P6SM SCT120 BKN200=



000
FTUS45 KPUB 190520
TAFPUB
TAF
KPUB 190520Z 1906/2006 VRB05KT P6SM SKC
     FM191800 11010KT P6SM FEW120 SCT200
     FM200200 VRB05KT P6SM BKN200=



000
FTUS45 KPUB 190520
TAFCOS
TAF
KCOS 190520Z 1906/2006 VRB06KT P6SM FEW200
     FM190900 36006KT P6SM SKC
     FM191700 14008KT P6SM FEW100 SCT200
     FM200200 02008KT P6SM SCT120 BKN200=



000
FTUS45 KPUB 182320
TAFALS
TAF
KALS 182320Z 1900/1924 VRB05KT P6SM FEW120
     FM190400 VRB04KT P6SM SKC
     FM191900 28008KT P6SM SCT120 SCT200=



000
FTUS45 KPUB 182320
TAFCOS
TAF
KCOS 182320Z 1900/1924 14012KT P6SM SCT120
     FM190200 VRB06KT P6SM FEW120
     FM190500 36006KT P6SM SKC
     FM191600 15008KT P6SM FEW100 SCT200=



000
FTUS45 KPUB 182320
TAFPUB
TAF
KPUB 182320Z 1900/1924 13012KT P6SM FEW150
     FM190200 10007KT P6SM FEW120
     FM190700 VRB05KT P6SM SKC
     FM191800 12010KT P6SM SCT120 SCT200=



000
FTUS45 KPUB 182320
TAFCOS
TAF
KCOS 182320Z 1900/1924 14012KT P6SM SCT120
     FM190200 VRB06KT P6SM FEW120
     FM190500 36006KT P6SM SKC
     FM191600 15008KT P6SM FEW100 SCT200=



000
FTUS45 KPUB 182320
TAFALS
TAF
KALS 182320Z 1900/1924 VRB05KT P6SM FEW120
     FM190400 VRB04KT P6SM SKC
     FM191900 28008KT P6SM SCT120 SCT200=



000
FTUS45 KPUB 182320
TAFPUB
TAF
KPUB 182320Z 1900/1924 13012KT P6SM FEW150
     FM190200 10007KT P6SM FEW120
     FM190700 VRB05KT P6SM SKC
     FM191800 12010KT P6SM SCT120 SCT200=



000
FTUS45 KPUB 181727
TAFPUB
TAF
KPUB 181727Z 1818/1918 VRB05KT P6SM FEW200
     FM182000 14008KT P6SM FEW120 SCT200
     FM182200 13011KT P6SM FEW120 SCT200
     FM190200 10007KT P6SM SCT200
     FM190700 VRB05KT P6SM FEW250=



000
FTUS45 KPUB 181727
TAFCOS
TAF
KCOS 181727Z 1818/1918 18010KT P6SM FEW110 FEW250
     FM182000 18015KT P6SM FEW110 SCT200
     FM190200 15007KT P6SM SCT200
     FM190500 VRB06KT P6SM FEW200
     FM191600 16007KT P6SM FEW110 FEW250=



000
FTUS45 KPUB 181727
TAFALS
TAF
KALS 181727Z 1818/1918 VRB04KT P6SM FEW200
     FM181900 14008KT P6SM FEW110 SCT200
     FM190400 VRB06KT P6SM SCT100 BKN200=



000
FTUS45 KPUB 181727
TAFALS
TAF
KALS 181727Z 1818/1918 VRB04KT P6SM FEW200
     FM181900 14008KT P6SM FEW110 SCT200
     FM190400 VRB06KT P6SM SCT100 BKN200=



000
FTUS45 KPUB 181727
TAFPUB
TAF
KPUB 181727Z 1818/1918 VRB05KT P6SM FEW200
     FM182000 14008KT P6SM FEW120 SCT200
     FM182200 13011KT P6SM FEW120 SCT200
     FM190200 10007KT P6SM SCT200
     FM190700 VRB05KT P6SM FEW250=



000
FTUS45 KPUB 181727
TAFCOS
TAF
KCOS 181727Z 1818/1918 18010KT P6SM FEW110 FEW250
     FM182000 18015KT P6SM FEW110 SCT200
     FM190200 15007KT P6SM SCT200
     FM190500 VRB06KT P6SM FEW200
     FM191600 16007KT P6SM FEW110 FEW250=



000
FTUS45 KPUB 181125
TAFPUB
TAF
KPUB 181125Z 1812/1912 VRB05KT P6SM FEW200
     FM181800 14008KT P6SM FEW120 SCT200
     FM182200 13011KT P6SM FEW120 SCT200
     FM190200 10007KT P6SM SCT200=



000
FTUS45 KPUB 181125
TAFCOS
TAF
KCOS 181125Z 1812/1912 VRB06KT P6SM FEW200
     FM181800 18010KT P6SM FEW110 SCT200
     FM182000 18015KT P6SM SCT110 SCT200
     FM190200 15007KT P6SM SCT200
     FM190500 VRB06KT P6SM SCT200=



000
FTUS45 KPUB 181125
TAFALS
TAF
KALS 181125Z 1812/1912 VRB04KT P6SM FEW200
     FM181900 14008KT P6SM FEW110 SCT200
     FM190400 VRB06KT P6SM SCT100 BKN200=



000
FTUS45 KPUB 181125
TAFALS
TAF
KALS 181125Z 1812/1912 VRB04KT P6SM FEW200
     FM181900 14008KT P6SM FEW110 SCT200
     FM190400 VRB06KT P6SM SCT100 BKN200=



000
FTUS45 KPUB 181125
TAFPUB
TAF
KPUB 181125Z 1812/1912 VRB05KT P6SM FEW200
     FM181800 14008KT P6SM FEW120 SCT200
     FM182200 13011KT P6SM FEW120 SCT200
     FM190200 10007KT P6SM SCT200=



000
FTUS45 KPUB 181125
TAFCOS
TAF
KCOS 181125Z 1812/1912 VRB06KT P6SM FEW200
     FM181800 18010KT P6SM FEW110 SCT200
     FM182000 18015KT P6SM SCT110 SCT200
     FM190200 15007KT P6SM SCT200
     FM190500 VRB06KT P6SM SCT200=



000
FTUS45 KPUB 180520
TAFALS
TAF
KALS 180520Z 1806/1906 VRB04KT P6SM FEW200
     FM181900 14010KT P6SM FEW120 SCT200
     FM190300 17007KT P6SM SCT100 BKN200=



000
FTUS45 KPUB 180520
TAFPUB
TAF
KPUB 180520Z 1806/1906 VRB04KT P6SM FEW200
     FM181800 13010KT P6SM SCT200
     FM190200 15007KT P6SM SCT200=



000
FTUS45 KPUB 180520
TAFCOS
TAF
KCOS 180520Z 1806/1906 01007KT P6SM SCT100 SCT200
     FM181800 17010KT P6SM FEW120 SCT200=



000
FTUS45 KPUB 180520
TAFCOS
TAF

FM182100
 18014KT P6SM SCT120 SCT200
FM190200
 15007KT P6SM SCT120 SCT200=



000
FTUS45 KPUB 180520
TAFCOS
TAF

FM182100
 18014KT P6SM SCT120 SCT200
FM190200
 15007KT P6SM SCT120 SCT200=



000
FTUS45 KPUB 180520
TAFCOS
TAF
KCOS 180520Z 1806/1906 01007KT P6SM SCT100 SCT200
     FM181800 17010KT P6SM FEW120 SCT200=



000
FTUS45 KPUB 180520
TAFPUB
TAF
KPUB 180520Z 1806/1906 VRB04KT P6SM FEW200
     FM181800 13010KT P6SM SCT200
     FM190200 15007KT P6SM SCT200=



000
FTUS45 KPUB 172335
TAFCOS
TAF
KCOS 172335Z 1800/1824 16008KT P6SM SCT100 BKN200
     FM180300 VRB05KT P6SM FEW120 SCT200
     FM181800 17012KT P6SM FEW120 SCT200=



000
FTUS45 KPUB 172335
TAFALS
TAF
KALS 172335Z 1800/1824 12010KT P6SM BKN100
     FM180200 VRB05KT P6SM FEW100 SCT200
     FM181800 14010KT P6SM FEW100 SCT200=



000
FTUS45 KPUB 172335
TAFPUB
TAF
KPUB 172335Z 1800/1824 03012KT P6SM SCT100 BKN150
     FM180100 VRB05KT P6SM FEW100 BKN200
     FM180400 VRB04KT P6SM SCT200
     FM181800 12010KT P6SM SCT200=



000
FTUS45 KPUB 172335
TAFCOS
TAF
KCOS 172335Z 1800/1824 16008KT P6SM SCT100 BKN200
     FM180300 VRB05KT P6SM FEW120 SCT200
     FM181800 17012KT P6SM FEW120 SCT200=



000
FTUS45 KPUB 172335
TAFPUB
TAF
KPUB 172335Z 1800/1824 03012KT P6SM SCT100 BKN150
     FM180100 VRB05KT P6SM FEW100 BKN200
     FM180400 VRB04KT P6SM SCT200
     FM181800 12010KT P6SM SCT200=



000
FTUS45 KPUB 172335
TAFALS
TAF
KALS 172335Z 1800/1824 12010KT P6SM BKN100
     FM180200 VRB05KT P6SM FEW100 SCT200
     FM181800 14010KT P6SM FEW100 SCT200=



000
FTUS45 KPUB 172255 AAA
TAFPUB
TAF AMD
KPUB 172255Z 1723/1818 01010G20KT P6SM SCT100 BKN150
     FM180100 VRB05KT P6SM FEW100 BKN200=



000
FTUS45 KPUB 172255 AAA
TAFPUB
TAF AMD
KPUB 172255Z 1723/1818 01010G20KT P6SM SCT100 BKN150
     FM180100 VRB05KT P6SM FEW100 BKN200=



000
FTUS45 KPUB 171722
TAFALS
TAF
KALS 171722Z 1718/1818 VRB05KT P6SM FEW120 BKN200
     FM172100 11009KT P6SM SCT090 BKN200
     FM180300 VRB05KT P6SM FEW090 SCT200
     FM181700 12008KT P6SM SCT200=



000
FTUS45 KPUB 171722
TAFCOS
TAF
KCOS 171722Z 1718/1818 17009KT P6SM SCT090 BKN200
     FM180300 VRB05KT P6SM BKN200
     FM181600 17010KT P6SM SCT200=



000
FTUS45 KPUB 171722
TAFPUB
TAF
KPUB 171722Z 1718/1818 26006KT P6SM BKN200
     FM171900 13009KT P6SM SCT100 BKN200
     FM180300 VRB05KT P6SM BKN200=



000
FTUS45 KPUB 171722
TAFALS
TAF
KALS 171722Z 1718/1818 VRB05KT P6SM FEW120 BKN200
     FM172100 11009KT P6SM SCT090 BKN200
     FM180300 VRB05KT P6SM FEW090 SCT200
     FM181700 12008KT P6SM SCT200=



000
FTUS45 KPUB 171722
TAFPUB
TAF
KPUB 171722Z 1718/1818 26006KT P6SM BKN200
     FM171900 13009KT P6SM SCT100 BKN200
     FM180300 VRB05KT P6SM BKN200=



000
FTUS45 KPUB 171722
TAFCOS
TAF
KCOS 171722Z 1718/1818 17009KT P6SM SCT090 BKN200
     FM180300 VRB05KT P6SM BKN200
     FM181600 17010KT P6SM SCT200=



000
FTUS45 KPUB 171138
TAFCOS
TAF
KCOS 171138Z 1712/1812 01008KT P6SM SCT100 SCT150
     FM171500 VRB06KT P6SM SCT100 BKN150
     FM171800 19009KT P6SM SCT100 BKN150
     FM180300 VRB05KT P6SM SCT100=



000
FTUS45 KPUB 171138
TAFPUB
TAF
KPUB 171138Z 1712/1812 VRB06KT P6SM SCT120 SCT150
     FM171900 15009KT P6SM SCT120 BKN160
     FM180300 VRB05KT P6SM SCT120=



000
FTUS45 KPUB 171138
TAFALS
TAF
KALS 171138Z 1712/1812 VRB05KT P6SM SCT120 BKN150
     FM172100 13008KT P6SM FEW090 BKN150
     FM180300 VRB06KT P6SM FEW080 SCT150=



000
FTUS45 KPUB 171138
TAFCOS
TAF
KCOS 171138Z 1712/1812 01008KT P6SM SCT100 SCT150
     FM171500 VRB06KT P6SM SCT100 BKN150
     FM171800 19009KT P6SM SCT100 BKN150
     FM180300 VRB05KT P6SM SCT100=



000
FTUS45 KPUB 171138
TAFALS
TAF
KALS 171138Z 1712/1812 VRB05KT P6SM SCT120 BKN150
     FM172100 13008KT P6SM FEW090 BKN150
     FM180300 VRB06KT P6SM FEW080 SCT150=



000
FTUS45 KPUB 171138
TAFPUB
TAF
KPUB 171138Z 1712/1812 VRB06KT P6SM SCT120 SCT150
     FM171900 15009KT P6SM SCT120 BKN160
     FM180300 VRB05KT P6SM SCT120=



000
FTUS45 KPUB 170520
TAFALS
TAF
KALS 170520Z 1706/1806 11007KT P6SM SCT150
     FM170800 VRB05KT P6SM SCT150
     FM172100 14007KT P6SM FEW100 BKN150=



000
FTUS45 KPUB 170520
TAFCOS
TAF
KCOS 170520Z 1706/1806 36005KT P6SM FEW110
     FM171500 VRB03KT P6SM SKC
     FM171800 13008KT P6SM SCT120
     FM180300 VRB05KT P6SM SCT120=



000
FTUS45 KPUB 170520
TAFALS
TAF
KALS 170520Z 1706/1806 11007KT P6SM SCT150
     FM170800 VRB05KT P6SM SCT150
     FM172100 14007KT P6SM FEW100 BKN150=



000
FTUS45 KPUB 170520
TAFPUB
TAF
KPUB 170520Z 1706/1806 35007KT P6SM FEW120
     FM171900 13010KT P6SM SCT130
     FM180300 VRB05KT P6SM SCT130=



000
FTUS45 KPUB 170520
TAFPUB
TAF
KPUB 170520Z 1706/1806 35007KT P6SM FEW120
     FM171900 13010KT P6SM SCT130
     FM180300 VRB05KT P6SM SCT130=



000
FTUS45 KPUB 170520
TAFCOS
TAF
KCOS 170520Z 1706/1806 36005KT P6SM FEW110
     FM171500 VRB03KT P6SM SKC
     FM171800 13008KT P6SM SCT120
     FM180300 VRB05KT P6SM SCT120=



000
FTUS45 KPUB 162340
TAFPUB
TAF
KPUB 162340Z 1700/1724 12010KT P6SM SCT130
     FM170600 VRB05KT P6SM FEW130
     FM171900 13010KT P6SM SCT130=



000
FTUS45 KPUB 162340
TAFCOS
TAF
KCOS 162340Z 1700/1724 13006KT P6SM BKN120
     FM170300 VRB05KT P6SM SCT120
     FM170900 36005KT P6SM FEW120
     FM171500 VRB03KT P6SM SKC
     FM171800 13008KT P6SM SCT120=



000
FTUS45 KPUB 162340
TAFCOS
TAF
KCOS 162340Z 1700/1724 13006KT P6SM BKN120
     FM170300 VRB05KT P6SM SCT120
     FM170900 36005KT P6SM FEW120
     FM171500 VRB03KT P6SM SKC
     FM171800 13008KT P6SM SCT120=



000
FTUS45 KPUB 162340
TAFALS
TAF
KALS 162340Z 1700/1724 VRB05KT P6SM FEW100 BKN150
     FM170300 VRB03KT P6SM SCT150
     FM172100 14007KT P6SM FEW100 BKN150=



000
FTUS45 KPUB 162340
TAFPUB
TAF
KPUB 162340Z 1700/1724 12010KT P6SM SCT130
     FM170600 VRB05KT P6SM FEW130
     FM171900 13010KT P6SM SCT130=



000
FTUS45 KPUB 162340
TAFALS
TAF
KALS 162340Z 1700/1724 VRB05KT P6SM FEW100 BKN150
     FM170300 VRB03KT P6SM SCT150
     FM172100 14007KT P6SM FEW100 BKN150=



    US Dept of Commerce
    National Oceanic and Atmospheric Administration
    National Weather Service
    1325 East West Highway
    Silver Spring, MD 20910
    Page Author: NWS Internet Services Team
Disclaimer
Information Quality
Credits
Glossary
Privacy Policy
Freedom of Information Act (FOIA)
About Us
Career Opportunities